Search for airport 
image banner adimage banner adimage banner ad
image banner ad

NV42 - Heritage

Located in Jean, United States

ICAO - NV42, IATA -

Data provided by Airmate  

General information

Coordinates: N35°46'33" W115°37'53"
Elevation is 2575 feet MSL.
Magnetic variation is 14° East
View others Airports in Nevada

Operational data

Special qualification required
Current time UTC:
Current local time:
Weather at : KHND - Henderson Executive ( 50 km )
METAR: KHND 092156Z 32004KT 10SM CLR 29/M09 A2982 RMK AO2 SLP091 T02941094
TAF: KHND 091725Z 0918/1018 05009KT P6SM FEW160 FM092100 23014G23KT P6SM FEW250 FM100500 21010KT P6SM FEW200 FM101500 04007KT P6SM SKC
View NOTAMs / SUP AIP / TFR affecting this airport [VIEW]
Communications frequencies: [VIEW]

Runways:

RWY identifierQFULength (ft)Width (ft)SurfaceLDA (ft)
02330050EARTH
20330050EARTH

Airport contact information

Address: Jean United States

Satellite view of NV42